Time;durP1;ratioP1;P1;durP2;ratioP2;P2;SDS_P1;SDS_P2;PMS_P1;PMS_P2;Temp;Humidity;BMP_temperature;BMP_pressure;BME280_temperature;BME280_humidity;BME280_pressure;Samples;Min_cycle;Max_cycle;Signal;HPM_P1;HPM_P2
2022/07/26 00:01:37;;;;;;;16.40;4.55;;;17.60;1.00;;;;;;5083815;28;20031;-90
2022/07/26 00:04:03;;;;;;;12.57;4.38;;;17.50;1.00;;;;;;5067171;28;20036;-90
2022/07/26 00:06:28;;;;;;;16.65;4.38;;;17.50;1.00;;;;;;5067446;27;20135;-89
2022/07/26 00:08:54;;;;;;;14.27;4.00;;;17.60;1.00;;;;;;5070002;28;20461;-90
2022/07/26 00:11:21;;;;;;;17.00;4.30;;;17.60;1.00;;;;;;5067043;28;20043;-90
2022/07/26 00:13:47;;;;;;;16.83;3.95;;;17.60;1.00;;;;;;5068743;28;20046;-89
2022/07/26 00:16:13;;;;;;;16.95;4.13;;;17.60;1.00;;;;;;5084558;27;20031;-89
2022/07/26 00:18:38;;;;;;;17.52;4.65;;;17.50;1.00;;;;;;5070679;27;20306;-91
2022/07/26 00:21:05;;;;;;;16.30;4.22;;;17.50;1.00;;;;;;5064547;28;20062;-90
2022/07/26 00:23:30;;;;;;;15.38;4.38;;;17.50;1.00;;;;;;5068603;27;20032;-89
2022/07/26 00:25:56;;;;;;;17.90;4.63;;;17.40;1.00;;;;;;5070900;28;20554;-88
2022/07/26 00:28:22;;;;;;;19.48;4.25;;;17.50;1.00;;;;;;5067934;27;20103;-88
2022/07/26 00:30:48;;;;;;;16.20;3.97;;;17.40;1.00;;;;;;5067858;28;20463;-90
2022/07/26 00:33:14;;;;;;;13.07;4.32;;;17.30;1.00;;;;;;5067151;28;20047;-89
2022/07/26 00:35:39;;;;;;;16.48;4.70;;;17.30;1.00;;;;;;5064364;28;20039;-89
2022/07/26 00:38:05;;;;;;;17.00;4.43;;;17.30;1.00;;;;;;5081773;28;20745;-89
2022/07/26 00:40:31;;;;;;;15.27;4.22;;;17.30;17.30;;;;;;5066237;28;20039;-90
2022/07/26 00:42:56;;;;;;;16.70;4.20;;;17.30;1.00;;;;;;5071360;28;20043;-89
2022/07/26 00:45:22;;;;;;;14.32;4.07;;;17.30;10.20;;;;;;5085130;28;20126;-89
2022/07/26 00:47:49;;;;;;;18.40;4.47;;;17.30;18.20;;;;;;5085343;28;20440;-90
2022/07/26 00:50:16;;;;;;;16.38;4.22;;;17.30;69.60;;;;;;5065583;28;20031;-89
2022/07/26 00:52:47;;;;;;;25.15;4.97;;;17.30;34.90;;;;;;5084709;28;20071;-89
2022/07/26 00:55:14;;;;;;;20.35;4.88;;;17.40;20.50;;;;;;5065103;28;20094;-90
2022/07/26 00:57:40;;;;;;;14.30;4.13;;;17.40;35.80;;;;;;5086692;28;20426;-89
2022/07/26 01:00:13;;;;;;;19.40;4.28;;;17.40;68.30;;;;;;5061916;28;20043;-89
2022/07/26 01:02:39;;;;;;;14.48;4.85;;;17.40;37.10;;;;;;5069041;28;20043;-89
2022/07/26 01:05:05;;;;;;;17.25;4.47;;;17.40;92.60;;;;;;5084410;28;20061;-89
2022/07/26 01:07:31;;;;;;;14.02;4.70;;;17.40;34.00;;;;;;5081701;28;20570;-88
2022/07/26 01:09:57;;;;;;;13.43;4.40;;;17.40;96.10;;;;;;5068009;28;20423;-89
2022/07/26 01:12:26;;;;;;;15.70;4.75;;;17.40;41.80;;;;;;5086610;28;20591;-89
2022/07/26 01:14:51;;;;;;;14.20;4.38;;;17.40;96.80;;;;;;5070664;28;20052;-90
2022/07/26 01:17:17;;;;;;;14.25;3.65;;;17.50;14.00;;;;;;5068738;28;20046;-88
2022/07/26 01:19:43;;;;;;;18.75;4.75;;;17.50;9.60;;;;;;5064842;28;20462;-89
2022/07/26 01:22:08;;;;;;;13.00;4.15;;;17.50;13.70;;;;;;5067125;28;20070;-89
2022/07/26 01:24:34;;;;;;;17.60;4.40;;;17.50;1.00;;;;;;5066874;28;20036;-90
2022/07/26 01:27:00;;;;;;;16.67;4.85;;;17.60;99.90;;;;;;5068570;28;20092;-88
2022/07/26 01:29:25;;;;;;;14.88;3.90;;;17.50;6.20;;;;;;5084131;28;20120;-89
2022/07/26 01:31:52;;;;;;;15.57;4.38;;;17.50;1.00;;;;;;5066264;28;20040;-87
2022/07/26 01:34:18;;;;;;;14.80;4.40;;;17.50;1.00;;;;;;5080869;28;20036;-89
2022/07/26 01:36:44;;;;;;;17.50;4.80;;;17.50;1.00;;;;;;5063821;28;20090;-90
2022/07/26 01:39:10;;;;;;;16.52;4.30;;;17.60;1.00;;;;;;5068921;28;20483;-89
2022/07/26 01:41:36;;;;;;;13.90;4.63;;;17.60;1.00;;;;;;5084005;28;20474;-88
2022/07/26 01:44:02;;;;;;;16.70;4.78;;;17.70;1.00;;;;;;5081801;28;20051;-88
2022/07/26 01:46:28;;;;;;;14.40;4.10;;;17.70;1.00;;;;;;5075158;28;20089;-87
2022/07/26 01:48:54;;;;;;;15.63;4.72;;;17.70;1.00;;;;;;5064573;28;20120;-88
2022/07/26 01:51:20;;;;;;;12.10;3.95;;;17.70;1.00;;;;;;5083806;28;20050;-89
2022/07/26 01:53:46;;;;;;;12.60;4.28;;;17.70;1.00;;;;;;5066838;28;20461;-88
2022/07/26 01:56:12;;;;;;;14.02;4.28;;;17.70;1.00;;;;;;5065669;28;20039;-88
2022/07/26 01:58:39;;;;;;;11.88;4.15;;;17.70;1.00;;;;;;5071762;27;20485;-89
2022/07/26 02:01:05;;;;;;;11.70;3.72;;;17.70;1.00;;;;;;5071679;27;20439;-88
2022/07/26 02:03:31;;;;;;;9.65;4.32;;;17.70;1.00;;;;;;5072111;27;20088;-89
2022/07/26 02:05:56;;;;;;;10.48;3.85;;;17.80;1.00;;;;;;5084668;28;20127;-88
2022/07/26 02:08:22;;;;;;;14.05;4.05;;;17.80;1.00;;;;;;5088182;28;20607;-89
2022/07/26 02:11:00;;;;;;;11.13;3.72;;;17.80;1.00;;;;;;5070931;28;20036;-88
2022/07/26 02:13:31;;;;;;;8.90;3.58;;;17.80;1.00;;;;;;5090548;27;20031;-88
2022/07/26 02:15:57;;;;;;;11.55;3.92;;;17.80;99.90;;;;;;5076337;27;20545;-88
2022/07/26 02:18:25;;;;;;;13.43;4.10;;;17.80;99.90;;;;;;5070359;27;20035;-88
2022/07/26 02:20:51;;;;;;;10.93;4.25;;;17.70;1.00;;;;;;5087225;27;20538;-88
2022/07/26 02:23:17;;;;;;;10.45;4.05;;;17.80;99.90;;;;;;5077034;27;20515;-88
2022/07/26 02:25:42;;;;;;;9.50;3.80;;;17.80;99.90;;;;;;5074978;28;20295;-88
2022/07/26 02:28:08;;;;;;;9.52;3.80;;;17.80;99.90;;;;;;5079942;28;20375;-88
2022/07/26 02:30:34;;;;;;;10.75;3.83;;;17.80;99.90;;;;;;5070826;28;20059;-88
2022/07/26 02:32:59;;;;;;;8.93;3.50;;;17.80;99.90;;;;;;5083549;27;20035;-88
2022/07/26 02:35:26;;;;;;;8.45;3.40;;;17.70;99.90;;;;;;5070383;28;20425;-89
2022/07/26 02:37:51;;;;;;;12.27;4.00;;;17.70;99.90;;;;;;5087156;27;20073;-88
2022/07/26 02:40:17;;;;;;;9.68;4.10;;;17.70;99.90;;;;;;5075513;28;20077;-89
2022/07/26 02:42:43;;;;;;;6.43;3.35;;;17.70;99.90;;;;;;5086762;28;20031;-89
2022/07/26 02:45:09;;;;;;;7.90;3.42;;;17.70;99.90;;;;;;5071745;28;20173;-88
2022/07/26 02:47:45;;;;;;;8.50;3.53;;;17.70;99.90;;;;;;5069686;28;20028;-87
2022/07/26 02:50:11;;;;;;;6.95;3.25;;;17.70;99.90;;;;;;5082238;27;20074;-85
2022/07/26 02:52:36;;;;;;;14.02;3.30;;;17.60;1.00;;;;;;5071025;28;20323;-87
2022/07/26 02:55:02;;;;;;;5.65;2.60;;;17.40;23.80;;;;;;5068802;27;20050;-87
2022/07/26 02:57:28;;;;;;;4.00;2.90;;;17.20;99.90;;;;;;5071077;27;20036;-85
2022/07/26 02:59:53;;;;;;;6.70;3.03;;;17.10;99.90;;;;;;5073736;27;20031;-87
2022/07/26 03:02:19;;;;;;;5.55;2.45;;;17.10;99.90;;;;;;5068521;28;20204;-86
2022/07/26 03:04:44;;;;;;;6.97;3.03;;;17.00;99.90;;;;;;5066943;28;20035;-87
2022/07/26 03:07:10;;;;;;;8.15;2.58;;;16.90;99.90;;;;;;5088509;27;20115;-88
2022/07/26 03:09:36;;;;;;;6.30;2.70;;;16.90;99.90;;;;;;5079670;28;20039;-88
2022/07/26 03:12:01;;;;;;;4.72;2.42;;;16.90;99.90;;;;;;5079660;28;20182;-88
2022/07/26 03:14:27;;;;;;;6.85;2.72;;;16.90;99.90;;;;;;5074733;28;20054;-87
2022/07/26 03:16:53;;;;;;;6.88;2.90;;;16.90;99.90;;;;;;5071893;28;20089;-87
2022/07/26 03:19:18;;;;;;;7.40;2.75;;;17.00;99.90;;;;;;5069503;27;20035;-87
2022/07/26 03:21:44;;;;;;;4.38;2.80;;;17.00;99.90;;;;;;5079099;28;20193;-88
2022/07/26 03:24:10;;;;;;;7.45;2.80;;;16.90;99.90;;;;;;5088182;27;20039;-87
2022/07/26 03:26:36;;;;;;;6.65;2.75;;;17.00;99.90;;;;;;5084945;28;20043;-87
2022/07/26 03:29:01;;;;;;;6.32;3.08;;;16.90;99.90;;;;;;5068539;28;20491;-87
2022/07/26 03:31:27;;;;;;;8.07;2.90;;;16.90;99.90;;;;;;5072031;28;20042;-87
2022/07/26 03:33:53;;;;;;;6.43;2.95;;;16.90;99.90;;;;;;5066017;28;20036;-87
2022/07/26 03:36:18;;;;;;;7.40;3.55;;;16.90;99.90;;;;;;5066362;28;20093;-88
2022/07/26 03:38:44;;;;;;;4.85;2.83;;;16.90;99.90;;;;;;5070930;27;20039;-86
2022/07/26 03:41:10;;;;;;;9.70;3.40;;;16.90;99.90;;;;;;5066088;28;20036;-89
2022/07/26 03:43:36;;;;;;;8.65;3.35;;;16.90;99.90;;;;;;5076254;27;20510;-87
2022/07/26 03:46:01;;;;;;;12.18;3.15;;;16.80;99.90;;;;;;5086719;28;20035;-88
2022/07/26 03:48:27;;;;;;;8.98;3.60;;;16.90;99.90;;;;;;5085348;28;20582;-87
2022/07/26 03:50:53;;;;;;;7.88;3.15;;;16.90;99.90;;;;;;5081557;28;20058;-88
2022/07/26 03:53:19;;;;;;;7.55;3.15;;;16.90;99.90;;;;;;5069494;28;20035;-89
2022/07/26 03:58:29;;;;;;;8.88;3.00;;;16.80;99.90;;;;;;5082130;27;20135;-86
2022/07/26 04:00:58;;;;;;;8.07;3.00;;;16.80;99.90;;;;;;5068997;27;20394;-88
2022/07/26 04:03:24;;;;;;;9.32;2.95;;;16.70;99.90;;;;;;5083087;28;20035;-88
2022/07/26 04:05:50;;;;;;;8.38;3.00;;;16.80;99.90;;;;;;5063929;28;20451;-88
2022/07/26 04:08:15;;;;;;;9.88;3.08;;;16.80;99.90;;;;;;5070481;27;20095;-87
2022/07/26 04:10:45;;;;;;;9.77;3.03;;;16.70;99.90;;;;;;5065578;27;20059;-88
2022/07/26 04:13:10;;;;;;;14.95;3.53;;;16.80;99.90;;;;;;5068583;28;20522;-87
2022/07/26 04:15:37;;;;;;;8.40;2.85;;;16.80;99.90;;;;;;5067554;28;20057;-88
2022/07/26 04:18:03;;;;;;;8.05;2.47;;;16.80;99.90;;;;;;5083662;27;20039;-87
2022/07/26 04:20:29;;;;;;;10.02;2.65;;;16.80;99.90;;;;;;5062360;28;20059;-87
2022/07/26 04:22:54;;;;;;;9.73;2.47;;;16.80;99.90;;;;;;5068145;28;20058;-87
2022/07/26 04:25:20;;;;;;;9.20;2.55;;;16.90;99.90;;;;;;5065911;28;20444;-88
2022/07/26 04:27:46;;;;;;;6.78;2.35;;;17.00;99.90;;;;;;5085664;28;20032;-88
2022/07/26 04:30:12;;;;;;;6.65;1.90;;;16.90;99.90;;;;;;5067820;27;20481;-88
2022/07/26 04:32:37;;;;;;;10.30;2.60;;;17.00;99.90;;;;;;5083390;28;20043;-89
2022/07/26 04:35:04;;;;;;;8.43;2.60;;;16.90;99.90;;;;;;5063789;27;20443;-87
2022/07/26 04:37:31;;;;;;;9.93;2.70;;;17.00;99.90;;;;;;5077965;28;20577;-88
2022/07/26 04:39:57;;;;;;;9.27;2.20;;;17.00;99.90;;;;;;5066727;28;20075;-89
2022/07/26 04:42:23;;;;;;;6.93;2.60;;;17.00;99.90;;;;;;5068471;28;20035;-89
2022/07/26 04:44:49;;;;;;;7.20;2.20;;;16.90;99.90;;;;;;5065587;28;20044;-89
2022/07/26 04:47:14;;;;;;;9.10;2.08;;;16.90;99.90;;;;;;5065615;28;20045;-87
2022/07/26 04:49:40;;;;;;;5.05;1.45;;;16.90;99.90;;;;;;5066981;27;20444;-88
2022/07/26 04:52:06;;;;;;;5.00;1.60;;;16.80;1.00;;;;;;5065615;28;20042;-87
2022/07/26 04:54:34;;;;;;;5.40;1.83;;;16.80;1.00;;;;;;5081956;28;20063;-87
2022/07/26 04:56:59;;;;;;;4.45;1.48;;;16.90;1.00;;;;;;5062279;28;20527;-88
2022/07/26 04:59:25;;;;;;;7.25;1.42;;;16.70;1.00;;;;;;5066706;28;20066;-89
2022/07/26 05:01:51;;;;;;;8.55;1.65;;;16.70;99.90;;;;;;5083455;28;20430;-89
2022/07/26 05:04:16;;;;;;;6.00;1.50;;;16.70;99.90;;;;;;5067804;28;20039;-88
2022/07/26 05:06:42;;;;;;;6.82;1.45;;;16.70;99.90;;;;;;5083894;28;20487;-90
2022/07/26 05:09:09;;;;;;;10.82;1.67;;;16.70;99.90;;;;;;5086472;28;20115;-88
2022/07/26 05:11:35;;;;;;;8.43;1.73;;;16.70;1.00;;;;;;5068369;28;20058;-88
2022/07/26 05:14:01;;;;;;;6.43;1.40;;;16.70;99.90;;;;;;5069898;28;20039;-90
2022/07/26 05:16:27;;;;;;;6.28;1.10;;;16.60;99.90;;;;;;5084119;28;20047;-89
2022/07/26 05:18:52;;;;;;;4.68;1.30;;;16.60;99.90;;;;;;5082461;28;20067;-87
2022/07/26 05:21:18;;;;;;;5.57;1.20;;;16.50;99.90;;;;;;5077845;28;20028;-89
2022/07/26 05:23:44;;;;;;;4.78;1.30;;;16.60;99.90;;;;;;5065734;28;20044;-88
2022/07/26 05:26:11;;;;;;;5.00;1.08;;;16.60;99.90;;;;;;5065485;28;20111;-88
2022/07/26 05:28:45;;;;;;;8.50;1.13;;;16.60;99.90;;;;;;5066176;28;20395;-90
2022/07/26 05:31:11;;;;;;;6.15;1.80;;;16.60;99.90;;;;;;5084676;28;20447;-88
2022/07/26 05:33:37;;;;;;;5.38;1.15;;;16.70;99.90;;;;;;5067503;28;20118;-88
2022/07/26 05:36:03;;;;;;;6.25;1.33;;;16.70;99.90;;;;;;5081195;28;20032;-89
2022/07/26 05:38:28;;;;;;;6.20;1.25;;;16.70;99.90;;;;;;5072033;27;20173;-88
2022/07/26 05:40:54;;;;;;;4.43;1.40;;;16.70;99.90;;;;;;5068167;27;20031;-89
2022/07/26 05:43:20;;;;;;;4.13;1.17;;;16.60;99.90;;;;;;5070356;27;20027;-86
2022/07/26 05:45:45;;;;;;;6.13;1.20;;;16.30;1.00;;;;;;5089430;27;20070;-85
2022/07/26 05:48:11;;;;;;;4.75;1.17;;;16.10;1.00;;;;;;5082261;28;20949;-85
2022/07/26 05:50:37;;;;;;;3.85;1.17;;;15.90;30.00;;;;;;5063855;28;20472;-86
2022/07/26 05:53:02;;;;;;;3.25;1.05;;;15.80;1.00;;;;;;5089420;27;20384;-87
2022/07/26 05:55:28;;;;;;;3.95;1.02;;;15.70;99.90;;;;;;5066666;28;20177;-86
2022/07/26 05:57:54;;;;;;;7.40;1.13;;;15.80;99.90;;;;;;5086322;28;20044;-86
2022/07/26 06:00:19;;;;;;;6.82;1.30;;;15.90;99.90;;;;;;5074979;27;20041;-87
2022/07/26 06:02:45;;;;;;;4.28;1.20;;;15.90;99.90;;;;;;5088074;28;20455;-87
2022/07/26 06:05:14;;;;;;;3.45;1.30;;;16.00;99.90;;;;;;5066631;28;20485;-87
2022/07/26 06:07:40;;;;;;;6.50;1.15;;;16.20;99.90;;;;;;5073831;28;20951;-88
2022/07/26 06:10:06;;;;;;;3.22;1.10;;;16.20;99.90;;;;;;5085040;28;20039;-88
2022/07/26 06:12:32;;;;;;;4.45;1.13;;;16.30;99.90;;;;;;5080739;27;20042;-87
2022/07/26 06:14:57;;;;;;;2.75;0.80;;;16.40;99.90;;;;;;5071893;27;20300;-88
2022/07/26 06:17:23;;;;;;;6.00;1.38;;;16.60;99.90;;;;;;5079377;27;20507;-87
2022/07/26 06:19:48;;;;;;;4.50;1.35;;;16.70;99.90;;;;;;5082370;28;20375;-89
2022/07/26 06:22:14;;;;;;;6.10;1.20;;;16.60;99.90;;;;;;5071013;28;20490;-89
2022/07/26 06:24:40;;;;;;;3.50;1.00;;;16.60;99.90;;;;;;5069164;28;20036;-89
2022/07/26 06:27:05;;;;;;;3.53;0.90;;;16.70;73.50;;;;;;5070508;27;20038;-87
2022/07/26 06:29:32;;;;;;;4.93;1.40;;;16.70;95.90;;;;;;5085137;28;20535;-88
2022/07/26 06:31:57;;;;;;;5.28;1.05;;;16.80;83.20;;;;;;5067692;28;20122;-88
2022/07/26 06:34:23;;;;;;;4.68;0.95;;;16.80;66.60;;;;;;5067314;28;20160;-88
2022/07/26 06:36:52;;;;;;;4.40;1.25;;;16.90;18.30;;;;;;5065698;28;20364;-89
2022/07/26 06:39:18;;;;;;;4.25;1.13;;;16.90;99.90;;;;;;5082650;28;20039;-88
2022/07/26 06:41:44;;;;;;;4.43;1.10;;;16.80;1.00;;;;;;5080302;28;20031;-88
2022/07/26 06:44:10;;;;;;;5.78;1.10;;;17.00;99.90;;;;;;5071355;28;20078;-88
2022/07/26 06:46:35;;;;;;;4.65;0.90;;;16.80;63.20;;;;;;5067126;28;20271;-88
2022/07/26 06:49:01;;;;;;;6.03;1.30;;;16.80;1.00;;;;;;5067778;27;20377;-87
2022/07/26 06:51:27;;;;;;;4.80;1.40;;;16.70;99.90;;;;;;5063985;27;20481;-86
2022/07/26 06:53:53;;;;;;;3.97;1.20;;;16.20;45.80;;;;;;5066888;28;20031;-86
2022/07/26 06:56:19;;;;;;;8.15;1.65;;;16.00;99.90;;;;;;5076668;28;20039;-86
2022/07/26 06:58:45;;;;;;;5.95;1.20;;;16.00;99.90;;;;;;5085221;27;20070;-85
2022/07/26 07:01:10;;;;;;;5.18;1.10;;;16.10;78.50;;;;;;5067345;27;20581;-85
2022/07/26 07:03:36;;;;;;;5.97;1.50;;;16.20;37.10;;;;;;5081990;27;20102;-86
2022/07/26 07:06:02;;;;;;;6.22;1.42;;;16.30;21.90;;;;;;5078579;28;20034;-86
2022/07/26 07:08:28;;;;;;;9.52;1.23;;;16.30;23.90;;;;;;5069816;27;20122;-87
2022/07/26 07:10:55;;;;;;;7.13;1.23;;;16.50;2.10;;;;;;5061812;28;20063;-87
2022/07/26 07:13:21;;;;;;;7.13;1.30;;;16.80;1.00;;;;;;5081391;28;20534;-87
2022/07/26 07:15:47;;;;;;;4.30;0.93;;;17.00;99.90;;;;;;5069226;27;20038;-87
2022/07/26 07:18:12;;;;;;;5.45;1.05;;;17.20;1.00;;;;;;5082894;27;20151;-88
2022/07/26 07:20:39;;;;;;;7.35;1.40;;;17.00;1.00;;;;;;5062677;28;20104;-87
2022/07/26 07:23:06;;;;;;;5.50;1.20;;;17.30;1.00;;;;;;5068531;28;20046;-87
2022/07/26 07:25:32;;;;;;;3.92;1.13;;;17.40;1.00;;;;;;5066939;28;20432;-87
2022/07/26 07:27:58;;;;;;;3.38;1.00;;;17.40;99.90;;;;;;5068387;27;20114;-88
2022/07/26 07:30:24;;;;;;;4.85;1.10;;;17.60;99.90;;;;;;5087799;27;20576;-88
2022/07/26 07:32:50;;;;;;;7.10;1.25;;;17.30;99.90;;;;;;5080157;27;20093;-87
2022/07/26 07:35:16;;;;;;;5.25;1.50;;;17.40;1.00;;;;;;5079721;27;20486;-89
2022/07/26 07:37:42;;;;;;;5.85;1.33;;;17.40;99.90;;;;;;5065475;27;20123;-88
2022/07/26 07:40:08;;;;;;;5.18;1.10;;;17.40;99.90;;;;;;5078742;28;20071;-87
2022/07/26 07:42:35;;;;;;;4.68;0.90;;;17.70;99.90;;;;;;5065148;27;20032;-87
2022/07/26 07:45:01;;;;;;;7.32;1.30;;;17.60;99.90;;;;;;5070087;27;20498;-87
2022/07/26 07:47:27;;;;;;;4.95;1.27;;;17.70;99.90;;;;;;5069345;28;20190;-87
2022/07/26 07:49:52;;;;;;;12.60;1.20;;;17.90;99.90;;;;;;5076160;27;20088;-88
2022/07/26 07:52:19;;;;;;;3.47;0.90;;;17.90;99.90;;;;;;5069236;28;20043;-87
2022/07/26 07:54:45;;;;;;;5.07;1.35;;;17.90;99.90;;;;;;5078727;27;20134;-87
2022/07/26 07:57:10;;;;;;;6.13;1.02;;;17.90;1.00;;;;;;5072272;27;20402;-87
2022/07/26 07:59:36;;;;;;;5.43;1.35;;;17.90;36.70;;;;;;5094203;27;20040;-89
2022/07/26 08:02:02;;;;;;;8.45;1.30;;;17.90;99.90;;;;;;5064695;28;20384;-88
2022/07/26 08:04:28;;;;;;;6.35;1.25;;;17.80;1.00;;;;;;5064772;28;20044;-87
2022/07/26 08:06:54;;;;;;;4.63;1.17;;;17.60;7.10;;;;;;5072388;27;20122;-87
2022/07/26 08:09:20;;;;;;;4.03;1.17;;;17.60;99.90;;;;;;5066873;27;20047;-88
2022/07/26 08:11:46;;;;;;;5.10;1.08;;;17.30;99.90;;;;;;5065913;28;20036;-88
2022/07/26 08:14:11;;;;;;;7.47;1.20;;;17.10;41.70;;;;;;5074580;27;20078;-87
2022/07/26 08:16:37;;;;;;;8.77;1.40;;;17.10;99.90;;;;;;5096829;27;20331;-88
2022/07/26 08:19:04;;;;;;;5.28;1.20;;;17.00;99.90;;;;;;5068408;28;20047;-88
2022/07/26 08:21:29;;;;;;;6.45;1.50;;;17.10;99.90;;;;;;5059228;28;20131;-88
2022/07/26 08:23:58;;;;;;;8.43;1.83;;;17.20;99.90;;;;;;5081277;28;20036;-88
2022/07/26 08:26:24;;;;;;;7.15;1.52;;;17.20;56.40;;;;;;5067277;28;20067;-89
2022/07/26 08:28:50;;;;;;;6.70;1.30;;;17.40;99.90;;;;;;5083005;27;20058;-88
2022/07/26 08:31:15;;;;;;;6.55;1.27;;;17.30;1.00;;;;;;5088067;28;20061;-88
2022/07/26 08:33:41;;;;;;;9.02;1.80;;;17.60;96.60;;;;;;5080567;27;20032;-88
2022/07/26 08:36:10;;;;;;;9.75;1.67;;;17.60;1.00;;;;;;5071445;28;20445;-89
2022/07/26 08:38:36;;;;;;;8.00;1.38;;;17.70;82.40;;;;;;5075372;27;20080;-87
2022/07/26 08:41:01;;;;;;;6.63;1.40;;;17.90;1.00;;;;;;5065213;28;20223;-88
2022/07/26 08:43:28;;;;;;;5.53;1.50;;;17.90;1.00;;;;;;5081964;27;20153;-88
2022/07/26 08:46:02;;;;;;;6.60;1.20;;;17.90;1.00;;;;;;5084074;28;20126;-87
2022/07/26 08:48:29;;;;;;;5.03;1.40;;;18.00;1.00;;;;;;5067248;28;20186;-87
2022/07/26 08:50:56;;;;;;;6.22;1.13;;;17.90;99.90;;;;;;5082075;28;20479;-89
2022/07/26 08:53:22;;;;;;;8.52;1.50;;;18.00;99.90;;;;;;5065443;28;20118;-87
2022/07/26 08:55:48;;;;;;;5.13;1.40;;;18.10;1.00;;;;;;5065219;28;20396;-88
2022/07/26 08:58:14;;;;;;;4.78;1.27;;;18.30;99.90;;;;;;5065594;28;20042;-87
2022/07/26 09:00:44;;;;;;;7.47;1.45;;;18.20;1.00;;;;;;5095070;28;20043;-87
2022/07/26 09:03:24;;;;;;;6.25;1.40;;;18.00;1.00;;;;;;5085225;28;20032;-87
2022/07/26 09:05:50;;;;;;;5.35;1.67;;;17.70;1.00;;;;;;5076316;28;20084;-89
2022/07/26 09:08:27;;;;;;;4.93;1.48;;;17.80;1.00;;;;;;5071435;28;20086;-88
2022/07/26 09:10:53;;;;;;;10.30;2.10;;;17.80;1.00;;;;;;5087980;27;20395;-89
2022/07/26 09:13:19;;;;;;;10.57;2.10;;;17.80;1.00;;;;;;5074171;27;20042;-88
2022/07/26 09:15:45;;;;;;;7.40;1.70;;;17.80;37.90;;;;;;5075331;28;20043;-88
2022/07/26 09:18:26;;;;;;;8.68;2.55;;;17.80;17.20;;;;;;5083569;28;20039;-87
2022/07/26 09:20:51;;;;;;;7.35;1.38;;;17.50;1.00;;;;;;5065108;28;20464;-89
2022/07/26 09:23:17;;;;;;;7.82;1.83;;;17.50;92.70;;;;;;5071070;28;20084;-88
2022/07/26 09:25:45;;;;;;;9.10;1.80;;;17.50;99.90;;;;;;5068073;27;20042;-87
2022/07/26 09:28:43;;;;;;;7.78;1.60;;;17.10;99.90;;;;;;5070253;28;20059;-88
2022/07/26 09:31:09;;;;;;;5.25;1.60;;;17.00;1.00;;;;;;5051056;28;20051;-89
2022/07/26 09:33:46;;;;;;;5.88;2.08;;;17.30;1.00;;;;;;5072646;28;20039;-87
2022/07/26 09:36:12;;;;;;;9.00;1.98;;;17.80;1.00;;;;;;5077687;27;20301;-87
2022/07/26 09:38:49;;;;;;;7.72;2.25;;;18.00;1.00;;;;;;5070606;28;20130;-88
2022/07/26 09:41:22;;;;;;;10.88;2.22;;;18.00;99.90;;;;;;5083777;28;20249;-87
2022/07/26 09:43:49;;;;;;;10.02;2.20;;;18.20;1.00;;;;;;5080481;28;20056;-88
2022/07/26 09:46:19;;;;;;;9.10;1.90;;;18.20;99.90;;;;;;5066181;28;20044;-90
2022/07/26 09:48:45;;;;;;;9.80;2.65;;;18.00;1.00;;;;;;5063449;28;20499;-89
2022/07/26 09:51:10;;;;;;;12.02;2.33;;;17.70;1.00;;;;;;5063563;28;20047;-88
2022/07/26 09:53:48;;;;;;;8.35;1.95;;;17.60;1.00;;;;;;5079367;28;20224;-89
2022/07/26 09:56:13;;;;;;;10.10;2.88;;;18.00;1.00;;;;;;5093961;28;20047;-89
2022/07/26 09:58:39;;;;;;;11.70;2.75;;;18.00;1.00;;;;;;5086563;28;20065;-88
2022/07/26 10:01:06;;;;;;;12.60;2.85;;;18.50;1.00;;;;;;5068106;28;20082;-88
2022/07/26 10:03:33;;;;;;;16.20;2.80;;;18.50;99.90;;;;;;5085576;28;20131;-88
2022/07/26 10:06:02;;;;;;;13.13;2.40;;;18.90;1.00;;;;;;5094999;28;20526;-89
2022/07/26 10:08:29;;;;;;;13.07;2.63;;;18.60;1.00;;;;;;5068691;28;20703;-88
2022/07/26 10:11:04;;;;;;;10.40;3.03;;;18.30;1.00;;;;;;5076636;28;20032;-88
2022/07/26 10:13:30;;;;;;;11.20;2.42;;;18.10;99.90;;;;;;5065752;28;20082;-87
2022/07/26 10:15:56;;;;;;;10.40;2.75;;;18.20;99.90;;;;;;5071142;28;20140;-87
2022/07/26 10:18:37;;;;;;;13.05;2.70;;;18.00;99.90;;;;;;5065832;28;20035;-87
2022/07/26 10:21:24;;;;;;;13.00;2.63;;;18.20;99.90;;;;;;5075215;28;20112;-88
2022/07/26 10:23:57;;;;;;;13.20;2.83;;;18.70;99.90;;;;;;5084112;28;20475;-88
2022/07/26 10:26:32;;;;;;;10.43;2.40;;;18.90;99.90;;;;;;5052429;28;20418;-88
2022/07/26 10:29:25;;;;;;;;;;;19.40;99.90;;;;;;5081922;28;20029;-88
2022/07/26 10:32:09;;;;;;;7.47;2.33;;;19.50;99.90;;;;;;5081321;28;19973;-88
2022/07/26 10:34:38;;;;;;;12.02;2.30;;;19.20;99.90;;;;;;5081471;28;20520;-88
2022/07/26 10:37:10;;;;;;;9.07;2.33;;;18.90;99.90;;;;;;5068000;28;20040;-88
2022/07/26 10:39:37;;;;;;;9.88;2.25;;;18.60;99.90;;;;;;5067197;28;20036;-88
2022/07/26 10:42:04;;;;;;;7.22;2.10;;;18.60;99.90;;;;;;5066037;28;20167;-89
2022/07/26 10:44:32;;;;;;;9.98;2.75;;;18.60;99.90;;;;;;5054617;28;20114;-88
2022/07/26 10:47:05;;;;;;;8.50;2.45;;;18.60;99.90;;;;;;5067715;28;20050;-89
2022/07/26 10:49:35;;;;;;;12.65;2.20;;;18.90;99.90;;;;;;5055960;28;20041;-88
2022/07/26 10:52:17;;;;;;;7.38;1.80;;;18.70;99.90;;;;;;5046593;28;20199;-89
2022/07/26 10:54:58;;;;;;;6.20;1.83;;;19.20;99.90;;;;;;5054620;28;20049;-88
2022/07/26 10:57:25;;;;;;;5.05;1.48;;;19.50;99.90;;;;;;5056948;28;20045;-88
2022/07/26 10:59:56;;;;;;;8.40;1.73;;;19.60;99.90;;;;;;5061846;28;20574;-89
2022/07/26 11:02:31;;;;;;;7.75;1.85;;;19.80;99.90;;;;;;5056003;28;20032;-89
2022/07/26 11:05:11;;;;;;;9.98;1.73;;;19.50;99.90;;;;;;5060545;28;20055;-89
2022/07/26 11:07:51;;;;;;;5.70;1.75;;;19.30;99.90;;;;;;5049090;28;20036;-89
2022/07/26 11:10:26;;;;;;;6.55;1.90;;;19.20;99.90;;;;;;5060636;28;20040;-87
2022/07/26 11:13:18;;;;;;;;;;;19.60;99.90;;;;;;5067116;28;20419;-90
2022/07/26 11:15:46;;;;;;;7.45;1.70;;;19.80;99.90;;;;;;5035083;28;19924;-89
2022/07/26 11:18:13;;;;;;;5.40;1.60;;;19.40;99.90;;;;;;5046283;28;20127;-88
2022/07/26 11:20:42;;;;;;;5.05;1.83;;;19.30;99.90;;;;;;5042252;28;20055;-89
2022/07/26 11:23:28;;;;;;;7.53;1.95;;;19.30;99.90;;;;;;5061179;28;20558;-89
2022/07/26 11:26:06;;;;;;;5.30;1.27;;;19.60;99.90;;;;;;5054516;28;20440;-90
2022/07/26 11:28:55;;;;;;;7.47;1.42;;;19.60;99.90;;;;;;5045436;28;20044;-89
2022/07/26 11:31:54;;;;;;;5.00;1.42;;;19.30;99.90;;;;;;5062837;28;20399;-89
2022/07/26 11:34:23;;;;;;;4.57;1.23;;;19.50;99.90;;;;;;5031967;28;20049;-89
2022/07/26 11:36:50;;;;;;;4.97;1.40;;;19.50;99.90;;;;;;5042271;28;20067;-89
2022/07/26 11:39:27;;;;;;;5.32;1.50;;;19.40;99.90;;;;;;5056765;28;20113;-89
2022/07/26 11:42:02;;;;;;;4.53;1.20;;;19.70;99.90;;;;;;5042971;28;20028;-89
2022/07/26 11:44:28;;;;;;;;;;;19.90;99.90;;;;;;5071550;28;20040;-89
2022/07/26 11:46:56;;;;;;;5.90;1.35;;;19.90;99.90;;;;;;5080670;28;19932;-88
2022/07/26 11:49:29;;;;;;;5.07;1.27;;;19.70;99.90;;;;;;5086767;28;20043;-89
2022/07/26 11:52:01;;;;;;;4.75;1.52;;;19.70;99.90;;;;;;5066058;28;20039;-88
2022/07/26 11:54:31;;;;;;;8.07;1.38;;;19.90;99.90;;;;;;5082395;28;20044;-89
2022/07/26 11:57:00;;;;;;;4.90;1.30;;;19.90;99.90;;;;;;5079997;28;20043;-88
2022/07/26 11:59:31;;;;;;;5.47;1.30;;;20.40;99.90;;;;;;5062147;28;20044;-89
2022/07/26 12:01:59;;;;;;;4.90;1.38;;;20.30;99.90;;;;;;5080046;28;20459;-90
2022/07/26 12:04:33;;;;;;;6.88;1.70;;;20.00;99.90;;;;;;5079484;28;20028;-90
2022/07/26 12:07:02;;;;;;;4.35;1.00;;;19.90;99.90;;;;;;5068343;28;20067;-89
2022/07/26 12:09:45;;;;;;;5.22;1.33;;;19.50;99.90;;;;;;5073711;28;20093;-90
2022/07/26 12:12:20;;;;;;;4.38;1.42;;;20.50;99.90;;;;;;5079331;28;20105;-88
2022/07/26 12:15:02;;;;;;;2.65;1.10;;;19.80;99.90;;;;;;5080924;28;20051;-88
2022/07/26 12:17:32;;;;;;;4.70;1.35;;;19.70;99.90;;;;;;5062085;28;20039;-89
2022/07/26 12:20:16;;;;;;;4.70;1.25;;;19.80;99.90;;;;;;5059617;28;20040;-90
2022/07/26 12:22:57;;;;;;;4.68;0.90;;;20.00;99.90;;;;;;5071109;28;20031;-89
2022/07/26 12:25:30;;;;;;;4.50;1.15;;;19.90;99.90;;;;;;5058640;28;20139;-90
2022/07/26 12:27:56;;;;;;;6.50;1.25;;;19.80;99.90;;;;;;5066577;28;20047;-89
2022/07/26 12:30:22;;;;;;;3.35;1.10;;;19.60;99.90;;;;;;5091418;28;20044;-89
2022/07/26 12:32:50;;;;;;;4.18;1.20;;;19.40;99.90;;;;;;5065571;28;20040;-89
2022/07/26 12:35:34;;;;;;;5.00;1.17;;;19.50;99.90;;;;;;5070027;28;20043;-89
2022/07/26 12:38:03;;;;;;;7.78;1.50;;;20.00;99.90;;;;;;5083395;28;20098;-89
2022/07/26 12:40:38;;;;;;;2.90;1.20;;;20.20;99.90;;;;;;5056794;28;20044;-89
2022/07/26 12:43:07;;;;;;;4.75;1.20;;;20.50;99.90;;;;;;5061817;28;20525;-89
2022/07/26 12:45:34;;;;;;;5.63;1.20;;;20.00;99.90;;;;;;5084031;28;20054;-89
2022/07/26 12:48:02;;;;;;;5.95;1.23;;;20.00;99.90;;;;;;5082702;28;20155;-90
2022/07/26 12:50:30;;;;;;;4.85;1.20;;;20.10;99.90;;;;;;5062672;28;20443;-90
2022/07/26 12:53:14;;;;;;;7.45;1.40;;;19.70;99.90;;;;;;5077982;28;20042;-88
2022/07/26 12:55:39;;;;;;;6.35;1.85;;;19.60;99.90;;;;;;5090942;28;20044;-89